createdAt,value
2018-12-29T00:01:31.059Z,25.90
2018-12-29T00:04:02.068Z,25.63
2018-12-29T00:06:32.991Z,24.07
2018-12-29T00:09:05.381Z,20.47
2018-12-29T00:11:36.376Z,25.53
2018-12-29T00:14:07.266Z,26.20
2018-12-29T00:16:38.273Z,25.17
2018-12-29T00:19:09.497Z,24.23
2018-12-29T00:21:40.548Z,25.97
2018-12-29T00:24:11.515Z,25.03
2018-12-29T00:26:46.425Z,25.70
2018-12-29T00:29:18.972Z,25.93
2018-12-29T00:31:49.983Z,24.23
2018-12-29T00:34:20.991Z,24.33
2018-12-29T00:36:51.928Z,26.00
2018-12-29T00:39:22.951Z,26.00
2018-12-29T00:41:54.076Z,25.97
2018-12-29T00:44:25.083Z,25.03
2018-12-29T00:46:56.041Z,25.90
2018-12-29T00:49:27.030Z,25.83
2018-12-29T00:51:58.197Z,25.60
2018-12-29T00:54:31.761Z,26.93
2018-12-29T00:57:02.801Z,26.77
2018-12-29T00:59:33.870Z,25.97
2018-12-29T01:02:04.832Z,25.07
2018-12-29T01:04:35.878Z,24.47
2018-12-29T01:07:06.959Z,25.00
2018-12-29T01:09:37.869Z,25.37
2018-12-29T01:12:08.858Z,25.57
2018-12-29T01:14:39.783Z,25.73
2018-12-29T01:17:10.761Z,25.30
2018-12-29T01:19:41.784Z,25.17
2018-12-29T01:22:12.814Z,25.97
2018-12-29T01:24:43.861Z,25.13
2018-12-29T01:27:14.920Z,24.80
2018-12-29T01:29:45.842Z,22.83
2018-12-29T01:32:16.788Z,23.13
2018-12-29T01:34:47.672Z,21.90
2018-12-29T01:37:18.643Z,23.80
2018-12-29T01:39:49.590Z,23.00
2018-12-29T01:42:20.615Z,24.33
2018-12-29T01:44:51.643Z,22.67
2018-12-29T01:47:22.585Z,21.57
2018-12-29T01:49:53.630Z,22.63
2018-12-29T01:52:27.593Z,22.77
2018-12-29T01:55:03.149Z,22.40
2018-12-29T01:57:34.165Z,22.60
2018-12-29T02:00:05.990Z,22.87
2018-12-29T02:02:36.989Z,22.87
2018-12-29T02:05:10.847Z,21.60
2018-12-29T02:07:41.850Z,23.27
2018-12-29T02:10:12.893Z,23.40
2018-12-29T02:12:43.814Z,22.47
2018-12-29T02:15:14.772Z,23.20
2018-12-29T02:17:45.745Z,22.67
2018-12-29T02:20:16.770Z,21.63
2018-12-29T02:22:47.701Z,23.73
2018-12-29T02:25:18.759Z,24.13
2018-12-29T02:27:49.697Z,23.90
2018-12-29T02:30:20.753Z,22.40
2018-12-29T02:32:51.683Z,22.93
2018-12-29T02:35:22.737Z,21.47
2018-12-29T02:37:53.641Z,23.40
2018-12-29T02:40:24.705Z,22.00
2018-12-29T02:42:55.740Z,22.27
2018-12-29T02:45:33.049Z,22.07
2018-12-29T02:47:59.461Z,22.47
2018-12-29T02:50:30.450Z,23.47
2018-12-29T02:53:01.353Z,23.53
2018-12-29T02:55:35.040Z,24.23
2018-12-29T02:58:06.120Z,24.70
2018-12-29T03:00:37.029Z,23.13
2018-12-29T03:03:08.058Z,22.27
2018-12-29T03:05:39.051Z,21.97
2018-12-29T03:08:09.939Z,22.83
2018-12-29T03:10:41.261Z,22.37
2018-12-29T03:13:12.732Z,22.23
2018-12-29T03:15:43.804Z,21.97
2018-12-29T03:18:14.772Z,22.70
2018-12-29T03:20:45.768Z,22.00
2018-12-29T03:23:16.877Z,22.40
2018-12-29T03:25:47.967Z,22.10
2018-12-29T03:28:18.937Z,22.23
2018-12-29T03:30:49.837Z,21.13
2018-12-29T03:33:20.846Z,21.97
2018-12-29T03:35:51.807Z,21.83
2018-12-29T03:38:22.729Z,23.20
2018-12-29T03:40:53.683Z,22.13
2018-12-29T03:43:24.718Z,22.50
2018-12-29T03:45:55.710Z,22.83
2018-12-29T03:48:26.804Z,22.83
2018-12-29T03:50:57.754Z,23.33
2018-12-29T03:53:28.796Z,23.47
2018-12-29T03:55:59.848Z,23.20
2018-12-29T03:58:31.023Z,24.47
2018-12-29T04:01:02.071Z,23.93
2018-12-29T04:03:32.969Z,25.80
2018-12-29T04:06:03.939Z,22.10
2018-12-29T04:08:34.908Z,22.03
2018-12-29T04:11:05.821Z,23.63
2018-12-29T04:13:36.726Z,24.60
2018-12-29T04:16:07.807Z,24.83
2018-12-29T04:18:38.734Z,25.93
2018-12-29T04:21:09.607Z,24.97
2018-12-29T04:23:40.511Z,24.00
2018-12-29T04:26:11.499Z,24.10
2018-12-29T04:28:42.809Z,26.80
2018-12-29T04:31:13.750Z,25.13
2018-12-29T04:33:44.730Z,25.37
2018-12-29T04:36:15.642Z,24.03
2018-12-29T04:38:46.626Z,26.70
2018-12-29T04:41:17.512Z,26.03
2018-12-29T04:43:48.403Z,25.77
2018-12-29T04:46:19.520Z,25.70
2018-12-29T04:48:50.486Z,25.83
2018-12-29T04:51:21.418Z,25.93
2018-12-29T04:53:52.465Z,27.40
2018-12-29T04:56:25.074Z,28.10
2018-12-29T04:58:56.068Z,27.27
2018-12-29T05:01:27.082Z,27.93
2018-12-29T05:03:58.054Z,28.00
2018-12-29T05:06:29.058Z,29.70
2018-12-29T05:09:00.032Z,28.03
2018-12-29T05:11:30.991Z,28.80
2018-12-29T05:14:02.146Z,28.70
2018-12-29T05:16:33.012Z,29.57
2018-12-29T05:19:04.065Z,28.90
2018-12-29T05:21:35.027Z,29.17
2018-12-29T05:24:06.343Z,29.60
2018-12-29T05:26:37.214Z,29.97
2018-12-29T05:29:08.198Z,31.20
2018-12-29T05:31:39.183Z,31.80
2018-12-29T05:34:10.116Z,30.43
2018-12-29T05:36:41.116Z,29.67
2018-12-29T05:39:12.086Z,29.53
2018-12-29T05:41:43.134Z,31.07
2018-12-29T05:44:13.194Z,31.60
2018-12-29T05:46:44.594Z,30.63
2018-12-29T05:49:15.601Z,31.63
2018-12-29T05:51:46.581Z,31.40
2018-12-29T05:54:17.486Z,30.63
2018-12-29T05:56:48.468Z,30.17
2018-12-29T05:59:19.488Z,32.33
2018-12-29T06:01:50.486Z,31.73
2018-12-29T06:04:21.430Z,31.90
2018-12-29T06:06:52.476Z,31.37
2018-12-29T06:09:23.449Z,29.73
2018-12-29T06:11:54.480Z,30.07
2018-12-29T06:14:25.464Z,30.87
2018-12-29T06:16:56.674Z,31.00
2018-12-29T06:19:27.671Z,29.70
2018-12-29T06:21:58.627Z,31.73
2018-12-29T06:24:29.523Z,32.07
2018-12-29T06:27:00.529Z,30.87
2018-12-29T06:29:31.499Z,32.13
2018-12-29T06:32:02.560Z,31.93
2018-12-29T06:34:33.458Z,32.87
2018-12-29T06:37:04.360Z,33.80
2018-12-29T06:39:35.251Z,33.93
2018-12-29T06:42:06.165Z,32.30
2018-12-29T06:44:37.084Z,33.37
2018-12-29T06:47:08.102Z,33.23
2018-12-29T06:49:39.079Z,33.40
2018-12-29T06:52:10.064Z,32.90
2018-12-29T06:54:41.012Z,30.97
2018-12-29T06:57:11.931Z,31.37
2018-12-29T06:59:42.975Z,31.90
2018-12-29T07:02:14.007Z,32.20
2018-12-29T07:04:45.080Z,32.67
2018-12-29T07:07:15.984Z,32.40
2018-12-29T07:09:47.013Z,33.23
2018-12-29T07:12:18.163Z,33.17
2018-12-29T07:14:49.262Z,34.17
2018-12-29T07:17:20.187Z,31.20
2018-12-29T07:19:51.190Z,31.90
2018-12-29T07:22:22.094Z,33.27
2018-12-29T07:24:53.155Z,31.07
2018-12-29T07:27:24.197Z,33.17
2018-12-29T07:29:55.198Z,32.30
2018-12-29T07:32:26.110Z,32.27
2018-12-29T07:34:56.989Z,30.67
2018-12-29T07:37:27.895Z,31.00
2018-12-29T07:39:58.916Z,32.10
2018-12-29T07:42:29.898Z,30.80
2018-12-29T07:45:00.797Z,29.77
2018-12-29T07:47:31.733Z,28.73
2018-12-29T07:50:02.671Z,30.57
2018-12-29T07:52:33.649Z,30.30
2018-12-29T07:55:04.895Z,29.10
2018-12-29T07:57:35.897Z,30.00
2018-12-29T08:00:07.593Z,29.63
2018-12-29T08:02:38.592Z,30.53
2018-12-29T08:05:09.670Z,29.67
2018-12-29T08:07:40.634Z,27.33
2018-12-29T08:10:11.615Z,29.07
2018-12-29T08:12:42.591Z,30.00
2018-12-29T08:15:13.634Z,28.83
2018-12-29T08:17:44.737Z,28.07
2018-12-29T08:20:15.684Z,29.77
2018-12-29T08:22:46.662Z,27.10
2018-12-29T08:25:17.594Z,27.83
2018-12-29T08:27:48.497Z,30.57
2018-12-29T08:30:19.475Z,32.53
2018-12-29T08:32:50.444Z,29.97
2018-12-29T08:35:21.422Z,29.20
2018-12-29T08:37:52.298Z,31.43
2018-12-29T08:40:23.339Z,29.07
2018-12-29T08:42:54.397Z,28.23
2018-12-29T08:45:25.385Z,27.73
2018-12-29T08:47:56.273Z,26.87
2018-12-29T08:50:27.200Z,28.70
2018-12-29T08:52:58.252Z,27.57
2018-12-29T08:55:30.033Z,27.53
2018-12-29T08:58:01.151Z,27.57
2018-12-29T09:00:32.074Z,29.83
2018-12-29T09:03:03.196Z,27.13
2018-12-29T09:05:34.169Z,28.43
2018-12-29T09:08:05.141Z,27.30
2018-12-29T09:10:36.291Z,30.00
2018-12-29T09:13:07.524Z,28.70
2018-12-29T09:15:39.343Z,29.23
2018-12-29T09:18:10.358Z,29.30
2018-12-29T09:20:41.346Z,28.30
2018-12-29T09:23:12.412Z,29.20
2018-12-29T09:25:43.406Z,28.50
2018-12-29T09:28:14.531Z,29.73
2018-12-29T09:30:45.632Z,30.00
2018-12-29T09:33:16.778Z,30.73
2018-12-29T09:35:47.838Z,28.50
2018-12-29T09:38:18.769Z,29.50
2018-12-29T09:40:49.776Z,29.60
2018-12-29T09:43:20.799Z,29.63
2018-12-29T09:45:51.782Z,31.53
2018-12-29T09:48:22.701Z,29.30
2018-12-29T09:50:53.635Z,28.97
2018-12-29T09:53:24.538Z,29.73
2018-12-29T09:55:56.011Z,29.77
2018-12-29T09:58:27.218Z,29.03
2018-12-29T10:00:58.180Z,28.30
2018-12-29T10:03:29.145Z,29.60
2018-12-29T10:06:00.076Z,29.37
2018-12-29T10:08:31.025Z,29.37
2018-12-29T10:11:02.020Z,29.43
2018-12-29T10:13:32.993Z,27.57
2018-12-29T10:16:03.957Z,27.80
2018-12-29T10:18:35.059Z,28.47
2018-12-29T10:21:06.151Z,29.93
2018-12-29T10:23:37.130Z,27.60
2018-12-29T10:26:08.036Z,28.63
2018-12-29T10:28:39.021Z,28.03
2018-12-29T10:31:09.932Z,29.23
2018-12-29T10:33:40.831Z,26.50
2018-12-29T10:36:11.789Z,26.87
2018-12-29T10:38:42.705Z,27.63
2018-12-29T10:41:13.694Z,29.20
2018-12-29T10:43:44.583Z,27.00
2018-12-29T10:46:15.578Z,31.03
2018-12-29T10:48:46.511Z,30.10
2018-12-29T10:51:17.467Z,28.90
2018-12-29T10:53:48.399Z,30.30
2018-12-29T10:56:19.359Z,30.30
2018-12-29T10:58:50.409Z,28.63
2018-12-29T11:01:21.429Z,27.73
2018-12-29T11:03:52.468Z,27.87
2018-12-29T11:06:23.424Z,32.53
2018-12-29T11:08:55.088Z,28.33
2018-12-29T11:11:26.037Z,26.73
2018-12-29T11:13:56.994Z,27.17
2018-12-29T11:16:27.965Z,26.50
2018-12-29T11:19:00.305Z,25.00
2018-12-29T11:21:31.210Z,26.70
2018-12-29T11:24:02.106Z,23.57
2018-12-29T11:26:33.021Z,24.00
2018-12-29T11:29:04.014Z,24.77
2018-12-29T11:31:34.974Z,25.47
2018-12-29T11:34:05.912Z,21.60
2018-12-29T11:36:36.807Z,23.80
2018-12-29T11:39:07.917Z,22.50
2018-12-29T11:41:38.915Z,21.03
2018-12-29T11:44:11.592Z,21.53
2018-12-29T11:46:42.481Z,21.70
2018-12-29T11:49:17.957Z,22.00
2018-12-29T11:51:47.321Z,22.30
2018-12-29T11:54:18.241Z,21.17
2018-12-29T11:56:49.173Z,20.70
2018-12-29T11:59:20.174Z,20.90
2018-12-29T12:01:53.880Z,20.87
2018-12-29T12:04:24.931Z,19.53
2018-12-29T12:06:55.852Z,19.43
2018-12-29T12:09:27.079Z,20.20
2018-12-29T12:11:58.019Z,20.37
2018-12-29T12:14:29.042Z,20.80
2018-12-29T12:17:03.190Z,21.53
2018-12-29T12:19:34.259Z,20.93
2018-12-29T12:22:05.237Z,20.57
2018-12-29T12:24:36.136Z,22.17
2018-12-29T12:27:08.668Z,21.60
2018-12-29T12:29:40.029Z,21.17
2018-12-29T12:32:10.924Z,21.93
2018-12-29T12:34:43.575Z,22.43
2018-12-29T12:37:14.570Z,22.27
2018-12-29T12:39:45.990Z,22.50
2018-12-29T12:42:17.057Z,21.97
2018-12-29T12:44:47.907Z,24.20
2018-12-29T12:47:18.892Z,25.27
2018-12-29T12:49:49.783Z,22.63
2018-12-29T12:52:20.658Z,22.33
2018-12-29T12:54:51.728Z,22.37
2018-12-29T12:57:23.210Z,22.00
2018-12-29T12:59:54.364Z,23.10
2018-12-29T13:02:25.620Z,20.00
2018-12-29T13:04:56.665Z,20.17
2018-12-29T13:07:27.597Z,21.13
2018-12-29T13:09:58.594Z,22.33
2018-12-29T13:12:29.880Z,22.13
2018-12-29T13:15:00.842Z,21.80
2018-12-29T13:17:31.804Z,21.80
2018-12-29T13:20:02.887Z,22.17
2018-12-29T13:22:33.841Z,21.60
2018-12-29T13:25:05.166Z,21.93
2018-12-29T13:27:36.279Z,21.67
2018-12-29T13:30:08.095Z,21.67
2018-12-29T13:32:39.109Z,21.97
2018-12-29T13:35:10.275Z,22.10
2018-12-29T13:37:41.344Z,22.27
2018-12-29T13:40:12.316Z,22.37
2018-12-29T13:42:43.354Z,22.23
2018-12-29T13:45:14.478Z,21.63
2018-12-29T13:47:45.486Z,21.53
2018-12-29T13:50:16.572Z,22.13
2018-12-29T13:52:47.655Z,21.77
2018-12-29T13:55:18.698Z,21.77
2018-12-29T13:57:49.621Z,23.13
2018-12-29T14:00:20.584Z,22.67
2018-12-29T14:02:53.297Z,22.03
2018-12-29T14:05:24.239Z,23.83
2018-12-29T14:07:55.256Z,23.33
2018-12-29T14:10:26.190Z,23.07
2018-12-29T14:12:57.174Z,22.40
2018-12-29T14:15:28.242Z,22.70
2018-12-29T14:17:59.408Z,22.13
2018-12-29T14:20:30.470Z,22.60
2018-12-29T14:23:01.463Z,23.03
2018-12-29T14:25:32.378Z,22.77
2018-12-29T14:28:03.744Z,25.93
2018-12-29T14:30:34.713Z,25.03
2018-12-29T14:33:05.666Z,25.57
2018-12-29T14:35:36.649Z,24.03
2018-12-29T14:38:07.594Z,27.20
2018-12-29T14:40:38.642Z,30.87
2018-12-29T14:43:09.726Z,29.37
2018-12-29T14:45:40.770Z,64.87
2018-12-29T14:48:12.014Z,26.67
2018-12-29T14:50:43.145Z,23.57
2018-12-29T14:53:14.132Z,25.83
2018-12-29T14:55:45.238Z,23.63
2018-12-29T14:58:16.576Z,23.67
2018-12-29T15:00:47.599Z,24.73
2018-12-29T15:03:18.589Z,25.63
2018-12-29T15:05:49.558Z,25.20
2018-12-29T15:08:20.591Z,24.10
2018-12-29T15:10:51.505Z,23.50
2018-12-29T15:13:22.723Z,23.17
2018-12-29T15:15:53.761Z,27.30
2018-12-29T15:18:24.994Z,23.67
2018-12-29T15:20:56.334Z,21.73
2018-12-29T15:23:27.604Z,21.77
2018-12-29T15:25:58.540Z,23.17
2018-12-29T15:28:29.525Z,22.60
2018-12-29T15:31:00.537Z,21.77
2018-12-29T15:33:32.377Z,20.20
2018-12-29T15:36:03.358Z,22.07
2018-12-29T15:38:34.262Z,21.87
2018-12-29T15:41:05.533Z,22.60
2018-12-29T15:43:36.398Z,22.97
2018-12-29T15:46:07.628Z,21.67
2018-12-29T15:48:38.557Z,22.87
2018-12-29T15:51:09.646Z,22.87
2018-12-29T15:53:40.621Z,22.50
2018-12-29T15:56:11.494Z,21.47
2018-12-29T15:58:42.590Z,22.70
2018-12-29T16:01:13.963Z,23.67
2018-12-29T16:03:44.927Z,23.10
2018-12-29T16:06:15.906Z,23.33
2018-12-29T16:08:47.007Z,23.87
2018-12-29T16:11:26.009Z,22.60
2018-12-29T16:13:51.163Z,23.13
2018-12-29T16:16:22.188Z,23.90
2018-12-29T16:18:58.847Z,23.47
2018-12-29T16:21:25.842Z,22.90
2018-12-29T16:23:56.776Z,26.00
2018-12-29T16:26:27.802Z,23.53
2018-12-29T16:28:58.737Z,24.43
2018-12-29T16:31:29.686Z,23.57
2018-12-29T16:34:00.570Z,25.90
2018-12-29T16:36:31.845Z,23.17
2018-12-29T16:39:02.918Z,23.47
2018-12-29T16:41:33.974Z,22.23
2018-12-29T16:44:05.332Z,24.07
2018-12-29T16:46:36.723Z,23.37
2018-12-29T16:49:07.601Z,21.23
2018-12-29T16:51:38.576Z,20.10
2018-12-29T16:54:09.615Z,21.50
2018-12-29T16:56:40.932Z,20.77
2018-12-29T16:59:11.828Z,21.93
2018-12-29T17:01:42.872Z,21.13
2018-12-29T17:04:13.791Z,21.70
2018-12-29T17:06:46.462Z,22.37
2018-12-29T17:09:17.706Z,22.40
2018-12-29T17:11:52.529Z,19.93
2018-12-29T17:14:21.368Z,23.00
2018-12-29T17:16:52.467Z,25.90
2018-12-29T17:19:23.515Z,21.50
2018-12-29T17:21:58.162Z,21.60
2018-12-29T17:24:29.191Z,22.57
2018-12-29T17:27:00.195Z,21.40
2018-12-29T17:29:31.166Z,20.87
2018-12-29T17:32:02.186Z,21.77
2018-12-29T17:34:33.129Z,21.47
2018-12-29T17:37:04.092Z,21.47
2018-12-29T17:39:35.202Z,21.50
2018-12-29T17:42:06.195Z,22.17
2018-12-29T17:44:37.294Z,21.00
2018-12-29T17:47:08.259Z,22.03
2018-12-29T17:49:39.286Z,20.60
2018-12-29T17:52:10.312Z,19.80
2018-12-29T17:54:41.288Z,20.17
2018-12-29T17:57:12.271Z,18.87
2018-12-29T17:59:43.382Z,20.17
2018-12-29T18:02:14.282Z,18.57
2018-12-29T18:04:45.292Z,18.27
2018-12-29T18:07:16.365Z,19.33
2018-12-29T18:09:47.435Z,20.27
2018-12-29T18:12:18.564Z,19.43
2018-12-29T18:14:50.107Z,18.63
2018-12-29T18:17:21.367Z,18.93
2018-12-29T18:19:52.413Z,18.50
2018-12-29T18:22:23.382Z,19.87
2018-12-29T18:24:54.825Z,19.03
2018-12-29T18:27:25.797Z,19.30
2018-12-29T18:29:56.707Z,19.77
2018-12-29T18:32:29.655Z,19.27
2018-12-29T18:35:00.720Z,19.23
2018-12-29T18:37:31.714Z,19.50
2018-12-29T18:40:03.226Z,18.60
2018-12-29T18:42:34.247Z,19.80
2018-12-29T18:45:05.974Z,19.87
2018-12-29T18:47:37.223Z,20.17
2018-12-29T18:50:08.228Z,19.43
2018-12-29T18:52:39.555Z,20.57
2018-12-29T18:55:11.364Z,19.27
2018-12-29T18:57:42.388Z,19.23
2018-12-29T19:00:13.463Z,20.77
2018-12-29T19:02:44.463Z,20.33
2018-12-29T19:05:15.461Z,19.63
2018-12-29T19:07:46.320Z,20.30
2018-12-29T19:10:17.614Z,20.57
2018-12-29T19:12:48.561Z,20.97
2018-12-29T19:15:19.829Z,21.17
2018-12-29T19:17:51.360Z,21.27
2018-12-29T19:20:22.756Z,22.10
2018-12-29T19:22:53.949Z,21.33
2018-12-29T19:25:25.025Z,22.10
2018-12-29T19:27:55.990Z,21.87
2018-12-29T19:30:27.427Z,22.07
2018-12-29T19:32:58.760Z,21.83
2018-12-29T19:35:29.871Z,21.93
2018-12-29T19:38:01.025Z,23.00
2018-12-29T19:40:35.400Z,19.80
2018-12-29T19:43:06.959Z,22.07
2018-12-29T19:45:37.880Z,20.50
2018-12-29T19:48:08.868Z,20.50
2018-12-29T19:50:39.867Z,21.00
2018-12-29T19:53:11.334Z,22.63
2018-12-29T19:55:42.604Z,21.70
2018-12-29T19:58:13.604Z,19.50
2018-12-29T20:00:44.644Z,21.57
2018-12-29T20:03:16.203Z,19.90
2018-12-29T20:05:47.842Z,18.23
2018-12-29T20:08:18.818Z,18.90
2018-12-29T20:10:49.883Z,18.20
2018-12-29T20:13:21.148Z,17.90
2018-12-29T20:15:52.161Z,18.13
2018-12-29T20:18:23.413Z,18.00
2018-12-29T20:20:54.372Z,18.77
2018-12-29T20:23:25.387Z,16.23
2018-12-29T20:25:56.440Z,17.67
2018-12-29T20:28:27.344Z,18.20
2018-12-29T20:30:58.250Z,17.43
2018-12-29T20:33:29.517Z,17.47
2018-12-29T20:36:00.419Z,18.07
2018-12-29T20:38:31.394Z,17.47
2018-12-29T20:41:02.298Z,17.47
2018-12-29T20:43:33.229Z,16.53
2018-12-29T20:46:04.217Z,15.03
2018-12-29T20:48:35.313Z,16.10
2018-12-29T20:51:06.268Z,14.83
2018-12-29T20:53:37.278Z,14.90
2018-12-29T20:56:08.543Z,15.57
2018-12-29T20:58:39.504Z,15.00
2018-12-29T21:01:10.490Z,15.27
2018-12-29T21:03:41.622Z,17.10
2018-12-29T21:06:12.628Z,15.10
2018-12-29T21:08:43.618Z,15.90
2018-12-29T21:11:14.514Z,14.83
2018-12-29T21:13:45.474Z,15.20
2018-12-29T21:16:16.397Z,15.00
2018-12-29T21:18:47.378Z,16.87
2018-12-29T21:21:18.386Z,16.90
2018-12-29T21:23:49.951Z,16.27
2018-12-29T21:26:21.025Z,16.83
2018-12-29T21:28:51.907Z,15.30
2018-12-29T21:31:23.169Z,15.60
2018-12-29T21:33:54.081Z,14.50
2018-12-29T21:36:27.039Z,12.87
2018-12-29T21:38:57.963Z,13.60
2018-12-29T21:41:29.237Z,13.63
2018-12-29T21:44:00.252Z,13.17
2018-12-29T21:46:31.187Z,12.73
2018-12-29T21:49:02.088Z,13.50
2018-12-29T21:51:33.044Z,11.47
2018-12-29T21:54:04.430Z,11.90
2018-12-29T21:56:35.349Z,11.00
2018-12-29T21:59:06.389Z,11.30
2018-12-29T22:01:37.358Z,11.27
2018-12-29T22:04:08.473Z,10.80
2018-12-29T22:06:39.520Z,11.23
2018-12-29T22:09:10.606Z,11.13
2018-12-29T22:11:41.620Z,10.60
2018-12-29T22:14:12.590Z,11.77
2018-12-29T22:16:43.503Z,9.87
2018-12-29T22:19:14.477Z,9.47
2018-12-29T22:21:45.450Z,9.37
2018-12-29T22:24:16.423Z,10.23
2018-12-29T22:26:47.392Z,10.83
2018-12-29T22:29:18.673Z,10.17
2018-12-29T22:31:49.568Z,9.00
2018-12-29T22:34:20.470Z,8.83
2018-12-29T22:36:51.463Z,8.33
2018-12-29T22:39:22.466Z,7.40
2018-12-29T22:41:53.353Z,6.87
2018-12-29T22:44:24.373Z,6.93
2018-12-29T22:46:55.373Z,6.50
2018-12-29T22:49:26.332Z,6.47
2018-12-29T22:51:57.766Z,6.97
2018-12-29T22:54:28.785Z,7.33
2018-12-29T22:56:59.820Z,7.07
2018-12-29T22:59:30.704Z,7.17
2018-12-29T23:02:01.933Z,7.87
2018-12-29T23:04:33.153Z,7.07
2018-12-29T23:07:04.308Z,6.87
2018-12-29T23:09:35.278Z,8.83
2018-12-29T23:12:06.507Z,7.77
2018-12-29T23:14:37.470Z,8.50
2018-12-29T23:17:08.782Z,8.80
2018-12-29T23:19:39.731Z,8.70
2018-12-29T23:22:10.670Z,8.40
2018-12-29T23:24:41.890Z,9.53
2018-12-29T23:27:12.939Z,9.10
2018-12-29T23:29:43.960Z,8.97
2018-12-29T23:32:14.938Z,8.97
2018-12-29T23:34:45.840Z,8.40
2018-12-29T23:37:16.974Z,9.37
2018-12-29T23:39:48.092Z,10.20
2018-12-29T23:42:19.330Z,10.73
2018-12-29T23:44:50.360Z,10.90
2018-12-29T23:47:21.584Z,10.53
2018-12-29T23:49:52.826Z,11.80
2018-12-29T23:52:23.939Z,12.57
2018-12-29T23:54:54.955Z,12.33
2018-12-29T23:57:25.990Z,12.00
2018-12-29T23:59:58.563Z,12.37
